sensor_id;sensor_type;location;lat;lon;timestamp;pressure;altitude;pressure_sealevel;temperature;humidity
13124;BME280;6627;50.920;12.050;2023-12-20T00:00:20;98563.91;;;11.74;58.57
13124;BME280;6627;50.920;12.050;2023-12-20T00:03:05;98599.31;;;12.00;58.57
13124;BME280;6627;50.920;12.050;2023-12-20T00:05:47;98559.25;;;12.06;57.75
13124;BME280;6627;50.920;12.050;2023-12-20T00:08:28;98543.09;;;11.92;58.17
13124;BME280;6627;50.920;12.050;2023-12-20T00:11:08;98574.47;;;12.16;58.18
13124;BME280;6627;50.920;12.050;2023-12-20T00:13:35;98585.75;;;12.57;57.07
13124;BME280;6627;50.920;12.050;2023-12-20T00:16:05;98568.38;;;12.10;58.08
13124;BME280;6627;50.920;12.050;2023-12-20T00:18:32;98555.47;;;12.24;57.55
13124;BME280;6627;50.920;12.050;2023-12-20T00:21:06;98503.72;;;12.29;56.58
13124;BME280;6627;50.920;12.050;2023-12-20T00:23:34;98513.81;;;11.80;58.06
13124;BME280;6627;50.920;12.050;2023-12-20T00:26:09;98548.50;;;12.41;57.28
13124;BME280;6627;50.920;12.050;2023-12-20T00:28:56;98547.34;;;12.24;57.67
13124;BME280;6627;50.920;12.050;2023-12-20T00:31:35;98551.84;;;12.55;57.29
13124;BME280;6627;50.920;12.050;2023-12-20T00:34:21;98527.22;;;12.34;56.94
13124;BME280;6627;50.920;12.050;2023-12-20T00:36:57;98581.75;;;12.63;57.40
13124;BME280;6627;50.920;12.050;2023-12-20T00:39:31;98560.94;;;12.42;57.31
13124;BME280;6627;50.920;12.050;2023-12-20T00:42:09;98593.41;;;12.73;57.34
13124;BME280;6627;50.920;12.050;2023-12-20T00:44:56;98477.50;;;11.99;56.89
13124;BME280;6627;50.920;12.050;2023-12-20T00:47:25;98492.19;;;11.98;56.98
13124;BME280;6627;50.920;12.050;2023-12-20T00:49:58;98553.28;;;12.61;56.95
13124;BME280;6627;50.920;12.050;2023-12-20T00:52:42;98460.47;;;11.67;57.38
13124;BME280;6627;50.920;12.050;2023-12-20T00:55:17;98557.28;;;12.63;56.86
13124;BME280;6627;50.920;12.050;2023-12-20T00:57:59;98545.41;;;12.25;57.60
13124;BME280;6627;50.920;12.050;2023-12-20T01:00:30;98484.50;;;11.82;57.64
13124;BME280;6627;50.920;12.050;2023-12-20T01:02:59;98513.22;;;11.83;58.28
13124;BME280;6627;50.920;12.050;2023-12-20T01:05:29;98513.47;;;11.73;58.48
13124;BME280;6627;50.920;12.050;2023-12-20T01:08:08;98567.88;;;12.08;59.07
13124;BME280;6627;50.920;12.050;2023-12-20T01:10:44;98584.94;;;13.44;55.17
13124;BME280;6627;50.920;12.050;2023-12-20T01:13:16;98464.47;;;12.53;55.54
13124;BME280;6627;50.920;12.050;2023-12-20T01:15:43;98475.16;;;11.66;57.77
13124;BME280;6627;50.920;12.050;2023-12-20T01:18:15;98536.09;;;12.00;58.64
13124;BME280;6627;50.920;12.050;2023-12-20T01:21:02;98486.22;;;11.39;59.01
13124;BME280;6627;50.920;12.050;2023-12-20T01:23:30;98464.91;;;11.63;58.07
13124;BME280;6627;50.920;12.050;2023-12-20T01:26:01;98466.94;;;11.49;58.45
13124;BME280;6627;50.920;12.050;2023-12-20T01:28:39;98549.75;;;12.34;57.76
13124;BME280;6627;50.920;12.050;2023-12-20T01:31:08;98521.63;;;12.13;57.83
13124;BME280;6627;50.920;12.050;2023-12-20T01:33:37;98461.34;;;11.85;57.87
13124;BME280;6627;50.920;12.050;2023-12-20T01:36:14;98450.59;;;11.71;57.63
13124;BME280;6627;50.920;12.050;2023-12-20T01:38:42;98461.97;;;11.33;59.02
13124;BME280;6627;50.920;12.050;2023-12-20T01:41:20;98477.03;;;12.05;57.33
13124;BME280;6627;50.920;12.050;2023-12-20T01:43:49;98477.56;;;12.51;56.41
13124;BME280;6627;50.920;12.050;2023-12-20T01:46:17;98457.72;;;12.24;56.45
13124;BME280;6627;50.920;12.050;2023-12-20T01:48:47;98495.88;;;12.10;57.99
13124;BME280;6627;50.920;12.050;2023-12-20T01:51:15;98473.06;;;12.20;56.90
13124;BME280;6627;50.920;12.050;2023-12-20T01:54:03;98476.59;;;12.64;56.05
13124;BME280;6627;50.920;12.050;2023-12-20T01:56:33;98337.56;;;11.41;56.62
13124;BME280;6627;50.920;12.050;2023-12-20T01:59:11;98525.66;;;12.94;56.08
13124;BME280;6627;50.920;12.050;2023-12-20T02:01:39;98517.00;;;13.73;54.05
13124;BME280;6627;50.920;12.050;2023-12-20T02:04:19;98399.31;;;12.91;53.77
13124;BME280;6627;50.920;12.050;2023-12-20T02:06:56;98463.16;;;12.42;56.62
13124;BME280;6627;50.920;12.050;2023-12-20T02:09:24;98514.44;;;12.34;58.03
13124;BME280;6627;50.920;12.050;2023-12-20T02:11:55;98510.78;;;12.48;57.39
13124;BME280;6627;50.920;12.050;2023-12-20T02:14:33;98497.84;;;12.53;56.84
13124;BME280;6627;50.920;12.050;2023-12-20T02:17:00;98542.06;;;13.41;55.67
13124;BME280;6627;50.920;12.050;2023-12-20T02:19:45;98358.75;;;11.96;55.72
13124;BME280;6627;50.920;12.050;2023-12-20T02:22:22;98436.63;;;11.86;57.55
13124;BME280;6627;50.920;12.050;2023-12-20T02:24:58;98508.56;;;12.84;56.19
13124;BME280;6627;50.920;12.050;2023-12-20T02:27:25;98476.88;;;13.06;55.29
13124;BME280;6627;50.920;12.050;2023-12-20T02:30:05;98491.25;;;13.24;54.82
13124;BME280;6627;50.920;12.050;2023-12-20T02:32:35;98405.03;;;12.25;56.01
13124;BME280;6627;50.920;12.050;2023-12-20T02:35:03;98402.34;;;11.51;57.84
13124;BME280;6627;50.920;12.050;2023-12-20T02:37:32;98413.44;;;11.80;56.82
13124;BME280;6627;50.920;12.050;2023-12-20T02:40:06;98488.41;;;12.51;56.74
13124;BME280;6627;50.920;12.050;2023-12-20T02:42:41;98431.72;;;12.32;56.17
13124;BME280;6627;50.920;12.050;2023-12-20T02:45:27;98444.94;;;12.51;55.84
13124;BME280;6627;50.920;12.050;2023-12-20T02:48:00;98406.78;;;12.04;56.49
13124;BME280;6627;50.920;12.050;2023-12-20T02:50:27;98371.72;;;11.59;57.12
13124;BME280;6627;50.920;12.050;2023-12-20T02:53:03;98478.03;;;12.35;57.13
13124;BME280;6627;50.920;12.050;2023-12-20T02:55:31;98465.25;;;12.45;56.38
13124;BME280;6627;50.920;12.050;2023-12-20T02:58:01;98448.31;;;12.13;57.10
13124;BME280;6627;50.920;12.050;2023-12-20T03:00:31;98410.13;;;12.01;56.61
13124;BME280;6627;50.920;12.050;2023-12-20T03:02:59;98505.03;;;12.41;58.20
13124;BME280;6627;50.920;12.050;2023-12-20T03:05:46;98483.94;;;12.72;56.59
13124;BME280;6627;50.920;12.050;2023-12-20T03:08:18;98449.06;;;12.92;55.36
13124;BME280;6627;50.920;12.050;2023-12-20T03:10:50;98431.03;;;11.92;57.59
13124;BME280;6627;50.920;12.050;2023-12-20T03:13:25;98413.66;;;12.10;56.59
13124;BME280;6627;50.920;12.050;2023-12-20T03:15:53;98528.38;;;12.59;57.93
13124;BME280;6627;50.920;12.050;2023-12-20T03:18:21;98414.84;;;11.60;58.00
13124;BME280;6627;50.920;12.050;2023-12-20T03:21:07;98448.44;;;12.08;57.83
13124;BME280;6627;50.920;12.050;2023-12-20T03:23:36;98493.38;;;13.56;54.43
13124;BME280;6627;50.920;12.050;2023-12-20T03:26:15;98480.69;;;13.05;56.03
13124;BME280;6627;50.920;12.050;2023-12-20T03:28:42;98454.44;;;13.09;55.15
13124;BME280;6627;50.920;12.050;2023-12-20T03:31:13;98464.47;;;12.53;57.20
13124;BME280;6627;50.920;12.050;2023-12-20T03:33:51;98431.88;;;12.27;57.02
13124;BME280;6627;50.920;12.050;2023-12-20T03:36:20;98510.44;;;12.23;59.11
13124;BME280;6627;50.920;12.050;2023-12-20T03:38:51;98514.94;;;12.88;57.12
13124;BME280;6627;50.920;12.050;2023-12-20T03:41:24;98468.59;;;12.50;57.54
13124;BME280;6627;50.920;12.050;2023-12-20T03:44:11;98466.28;;;13.13;55.73
13124;BME280;6627;50.920;12.050;2023-12-20T03:46:58;98397.00;;;11.85;57.55
13124;BME280;6627;50.920;12.050;2023-12-20T03:49:35;98527.41;;;12.90;57.56
13124;BME280;6627;50.920;12.050;2023-12-20T03:52:16;98471.16;;;12.64;56.80
13124;BME280;6627;50.920;12.050;2023-12-20T03:54:45;98497.16;;;13.00;56.54
13124;BME280;6627;50.920;12.050;2023-12-20T03:57:12;98451.19;;;12.51;56.79
13124;BME280;6627;50.920;12.050;2023-12-20T03:59:44;98452.47;;;12.62;56.13
13124;BME280;6627;50.920;12.050;2023-12-20T04:02:20;98424.50;;;12.62;55.72
13124;BME280;6627;50.920;12.050;2023-12-20T04:04:50;98490.50;;;12.80;56.96
13124;BME280;6627;50.920;12.050;2023-12-20T04:07:33;98395.75;;;11.92;57.24
13124;BME280;6627;50.920;12.050;2023-12-20T04:10:11;98503.91;;;12.42;57.69
13124;BME280;6627;50.920;12.050;2023-12-20T04:12:39;98488.41;;;12.59;57.01
13124;BME280;6627;50.920;12.050;2023-12-20T04:15:15;98490.66;;;12.66;56.72
13124;BME280;6627;50.920;12.050;2023-12-20T04:18:02;98463.16;;;12.24;57.34
13124;BME280;6627;50.920;12.050;2023-12-20T04:20:34;98477.72;;;11.71;59.23
13124;BME280;6627;50.920;12.050;2023-12-20T04:23:02;98513.78;;;12.29;58.22
13124;BME280;6627;50.920;12.050;2023-12-20T04:25:31;98499.13;;;11.81;59.34
13124;BME280;6627;50.920;12.050;2023-12-20T04:28:18;98462.34;;;12.06;58.05
13124;BME280;6627;50.920;12.050;2023-12-20T04:30:49;98457.06;;;11.93;58.30
13124;BME280;6627;50.920;12.050;2023-12-20T04:33:22;98539.22;;;12.42;58.77
13124;BME280;6627;50.920;12.050;2023-12-20T04:35:56;98513.34;;;12.53;57.88
13124;BME280;6627;50.920;12.050;2023-12-20T04:38:43;98473.56;;;11.65;59.50
13124;BME280;6627;50.920;12.050;2023-12-20T04:41:11;98500.47;;;11.93;59.06
13124;BME280;6627;50.920;12.050;2023-12-20T04:43:52;98507.25;;;12.38;57.92
13124;BME280;6627;50.920;12.050;2023-12-20T04:46:24;98484.56;;;12.34;57.82
13124;BME280;6627;50.920;12.050;2023-12-20T04:49:11;98496.69;;;12.11;58.67
13124;BME280;6627;50.920;12.050;2023-12-20T04:51:58;98493.59;;;11.95;58.93
13124;BME280;6627;50.920;12.050;2023-12-20T04:54:31;98528.94;;;12.21;58.97
13124;BME280;6627;50.920;12.050;2023-12-20T04:57:00;98538.28;;;12.55;58.58
13124;BME280;6627;50.920;12.050;2023-12-20T04:59:27;98461.13;;;11.81;58.89
13124;BME280;6627;50.920;12.050;2023-12-20T05:02:09;98485.81;;;12.11;58.24
13124;BME280;6627;50.920;12.050;2023-12-20T05:04:38;98468.53;;;11.50;59.47
13124;BME280;6627;50.920;12.050;2023-12-20T05:07:09;98463.63;;;11.52;59.35
13124;BME280;6627;50.920;12.050;2023-12-20T05:09:56;98503.09;;;11.75;59.66
13124;BME280;6627;50.920;12.050;2023-12-20T05:12:40;98525.72;;;12.02;59.48
13124;BME280;6627;50.920;12.050;2023-12-20T05:15:21;98543.31;;;12.13;59.63
13124;BME280;6627;50.920;12.050;2023-12-20T05:18:07;98504.84;;;11.71;59.95
13124;BME280;6627;50.920;12.050;2023-12-20T05:20:54;98525.09;;;12.05;58.91
13124;BME280;6627;50.920;12.050;2023-12-20T05:23:22;98589.06;;;12.37;59.95
13124;BME280;6627;50.920;12.050;2023-12-20T05:26:09;98490.09;;;11.55;60.12
13124;BME280;6627;50.920;12.050;2023-12-20T05:28:57;98555.59;;;12.10;59.89
13124;BME280;6627;50.920;12.050;2023-12-20T05:31:24;98546.81;;;12.05;60.01
13124;BME280;6627;50.920;12.050;2023-12-20T05:34:06;98535.97;;;12.05;59.52
13124;BME280;6627;50.920;12.050;2023-12-20T05:36:43;98548.66;;;12.35;58.72
13124;BME280;6627;50.920;12.050;2023-12-20T05:39:11;98517.97;;;12.26;58.09
13124;BME280;6627;50.920;12.050;2023-12-20T05:41:38;98567.97;;;12.51;58.02
13124;BME280;6627;50.920;12.050;2023-12-20T05:44:07;98515.25;;;12.26;57.79
13124;BME280;6627;50.920;12.050;2023-12-20T05:46:41;98552.03;;;12.67;57.63
13124;BME280;6627;50.920;12.050;2023-12-20T05:49:23;98553.91;;;12.41;58.01
13124;BME280;6627;50.920;12.050;2023-12-20T05:51:50;98541.28;;;12.27;58.15
13124;BME280;6627;50.920;12.050;2023-12-20T05:54:18;98511.94;;;11.90;58.64
13124;BME280;6627;50.920;12.050;2023-12-20T05:56:47;98564.41;;;12.16;58.40
13124;BME280;6627;50.920;12.050;2023-12-20T05:59:16;98523.44;;;11.95;58.50
13124;BME280;6627;50.920;12.050;2023-12-20T06:01:44;98543.63;;;11.72;59.37
13124;BME280;6627;50.920;12.050;2023-12-20T06:04:11;98584.25;;;12.43;58.42
13124;BME280;6627;50.920;12.050;2023-12-20T06:06:41;98533.41;;;12.00;58.31
13124;BME280;6627;50.920;12.050;2023-12-20T06:09:09;98577.72;;;12.44;58.36
13124;BME280;6627;50.920;12.050;2023-12-20T06:11:37;98557.09;;;12.43;57.65
13124;BME280;6627;50.920;12.050;2023-12-20T06:14:04;98528.69;;;12.49;57.13
13124;BME280;6627;50.920;12.050;2023-12-20T06:16:33;98514.94;;;11.79;58.43
13124;BME280;6627;50.920;12.050;2023-12-20T06:19:05;98585.22;;;12.47;58.35
13124;BME280;6627;50.920;12.050;2023-12-20T06:21:41;98539.44;;;11.97;58.69
13124;BME280;6627;50.920;12.050;2023-12-20T06:24:28;98548.56;;;12.01;58.47
13124;BME280;6627;50.920;12.050;2023-12-20T06:26:55;98563.94;;;12.14;58.85
13124;BME280;6627;50.920;12.050;2023-12-20T06:29:23;98589.84;;;12.37;58.47
13124;BME280;6627;50.920;12.050;2023-12-20T06:32:07;98530.78;;;11.95;58.20
13124;BME280;6627;50.920;12.050;2023-12-20T06:34:35;98579.66;;;11.95;59.22
13124;BME280;6627;50.920;12.050;2023-12-20T06:37:03;98617.31;;;12.27;59.52
13124;BME280;6627;50.920;12.050;2023-12-20T06:39:31;98646.66;;;12.82;58.25
13124;BME280;6627;50.920;12.050;2023-12-20T06:41:59;98570.69;;;12.43;57.52
13124;BME280;6627;50.920;12.050;2023-12-20T06:44:27;98529.63;;;12.35;56.97
13124;BME280;6627;50.920;12.050;2023-12-20T06:46:54;98578.69;;;12.48;58.01
13124;BME280;6627;50.920;12.050;2023-12-20T06:49:23;98573.91;;;12.53;57.06
13124;BME280;6627;50.920;12.050;2023-12-20T06:51:50;98596.16;;;12.81;57.15
13124;BME280;6627;50.920;12.050;2023-12-20T06:54:17;98585.28;;;12.81;56.78
13124;BME280;6627;50.920;12.050;2023-12-20T06:56:44;98595.50;;;12.67;56.95
13124;BME280;6627;50.920;12.050;2023-12-20T06:59:12;98630.41;;;13.34;56.18
13124;BME280;6627;50.920;12.050;2023-12-20T07:01:48;98572.03;;;12.97;56.06
13124;BME280;6627;50.920;12.050;2023-12-20T07:04:16;98613.91;;;13.05;56.68
13124;BME280;6627;50.920;12.050;2023-12-20T07:06:48;98620.81;;;13.28;56.03
13124;BME280;6627;50.920;12.050;2023-12-20T07:09:18;98572.47;;;12.73;56.86
13124;BME280;6627;50.920;12.050;2023-12-20T07:11:45;98605.28;;;13.03;56.40
13124;BME280;6627;50.920;12.050;2023-12-20T07:14:12;98592.47;;;12.95;56.12
13124;BME280;6627;50.920;12.050;2023-12-20T07:16:40;98589.59;;;12.74;56.69
13124;BME280;6627;50.920;12.050;2023-12-20T07:19:07;98593.72;;;12.45;57.20
13124;BME280;6627;50.920;12.050;2023-12-20T07:21:34;98614.25;;;12.20;58.26
13124;BME280;6627;50.920;12.050;2023-12-20T07:24:03;98653.19;;;12.64;58.22
13124;BME280;6627;50.920;12.050;2023-12-20T07:26:30;98628.19;;;12.36;58.06
13124;BME280;6627;50.920;12.050;2023-12-20T07:28:58;98633.19;;;12.60;58.04
13124;BME280;6627;50.920;12.050;2023-12-20T07:31:25;98631.25;;;12.52;58.31
13124;BME280;6627;50.920;12.050;2023-12-20T07:33:54;98624.34;;;12.28;58.69
13124;BME280;6627;50.920;12.050;2023-12-20T07:36:21;98628.38;;;12.40;58.43
13124;BME280;6627;50.920;12.050;2023-12-20T07:38:49;98599.59;;;11.90;58.89
13124;BME280;6627;50.920;12.050;2023-12-20T07:41:18;98625.75;;;12.26;58.72
13124;BME280;6627;50.920;12.050;2023-12-20T07:43:54;98651.91;;;12.53;58.56
13124;BME280;6627;50.920;12.050;2023-12-20T07:46:42;98631.28;;;12.69;57.60
13124;BME280;6627;50.920;12.050;2023-12-20T07:49:09;98614.69;;;12.62;57.92
13124;BME280;6627;50.920;12.050;2023-12-20T07:51:37;98558.66;;;12.09;58.26
13124;BME280;6627;50.920;12.050;2023-12-20T07:54:17;98580.19;;;12.05;58.18
13124;BME280;6627;50.920;12.050;2023-12-20T07:57:05;98603.06;;;12.30;57.92
13124;BME280;6627;50.920;12.050;2023-12-20T07:59:52;98576.06;;;12.17;58.18
13124;BME280;6627;50.920;12.050;2023-12-20T08:02:38;98570.66;;;12.25;57.67
13124;BME280;6627;50.920;12.050;2023-12-20T08:05:05;98568.00;;;11.63;59.18
13124;BME280;6627;50.920;12.050;2023-12-20T08:07:34;98618.44;;;12.26;58.55
13124;BME280;6627;50.920;12.050;2023-12-20T08:10:03;98593.13;;;12.17;57.92
13124;BME280;6627;50.920;12.050;2023-12-20T08:12:48;98623.56;;;12.36;57.98
13124;BME280;6627;50.920;12.050;2023-12-20T08:15:27;98585.06;;;11.95;58.15
13124;BME280;6627;50.920;12.050;2023-12-20T08:18:04;98512.31;;;11.66;57.67
13124;BME280;6627;50.920;12.050;2023-12-20T08:20:31;98565.03;;;12.04;57.93
13124;BME280;6627;50.920;12.050;2023-12-20T08:22:58;98538.50;;;12.01;57.18
13124;BME280;6627;50.920;12.050;2023-12-20T08:25:26;98485.78;;;11.54;57.29
13124;BME280;6627;50.920;12.050;2023-12-20T08:28:06;98490.66;;;11.34;57.81
13124;BME280;6627;50.920;12.050;2023-12-20T08:30:33;98544.09;;;11.65;57.67
13124;BME280;6627;50.920;12.050;2023-12-20T08:33:01;98518.94;;;11.51;57.45
13124;BME280;6627;50.920;12.050;2023-12-20T08:35:29;98575.69;;;12.01;57.09
13124;BME280;6627;50.920;12.050;2023-12-20T08:37:56;98575.56;;;12.06;56.86
13124;BME280;6627;50.920;12.050;2023-12-20T08:40:23;98545.16;;;11.86;56.70
13124;BME280;6627;50.920;12.050;2023-12-20T08:42:50;98598.44;;;12.22;56.98
13124;BME280;6627;50.920;12.050;2023-12-20T08:45:19;98610.31;;;12.44;56.65
13124;BME280;6627;50.920;12.050;2023-12-20T08:47:47;98539.56;;;11.83;56.48
13124;BME280;6627;50.920;12.050;2023-12-20T08:50:14;98561.44;;;11.95;56.44
13124;BME280;6627;50.920;12.050;2023-12-20T08:52:41;98588.72;;;12.30;56.35
13124;BME280;6627;50.920;12.050;2023-12-20T08:55:12;98540.44;;;11.70;56.91
13124;BME280;6627;50.920;12.050;2023-12-20T08:57:42;98530.78;;;11.55;57.04
13124;BME280;6627;50.920;12.050;2023-12-20T09:00:11;98550.19;;;11.79;56.68
13124;BME280;6627;50.920;12.050;2023-12-20T09:02:46;98548.75;;;12.13;56.16
13124;BME280;6627;50.920;12.050;2023-12-20T09:05:29;98495.38;;;11.51;56.46
13124;BME280;6627;50.920;12.050;2023-12-20T09:07:57;98540.75;;;12.17;55.95
13124;BME280;6627;50.920;12.050;2023-12-20T09:10:25;98497.50;;;11.72;56.11
13124;BME280;6627;50.920;12.050;2023-12-20T09:12:54;98490.91;;;12.04;54.99
13124;BME280;6627;50.920;12.050;2023-12-20T09:15:23;98513.97;;;12.50;54.06
13124;BME280;6627;50.920;12.050;2023-12-20T09:17:59;98457.41;;;12.17;53.72
13124;BME280;6627;50.920;12.050;2023-12-20T09:20:46;98521.66;;;12.65;53.49
13124;BME280;6627;50.920;12.050;2023-12-20T09:23:19;98514.00;;;12.67;53.15
13124;BME280;6627;50.920;12.050;2023-12-20T09:25:46;98495.44;;;12.52;53.31
13124;BME280;6627;50.920;12.050;2023-12-20T09:28:14;98486.66;;;12.46;53.38
13124;BME280;6627;50.920;12.050;2023-12-20T09:31:02;98482.94;;;12.16;54.13
13124;BME280;6627;50.920;12.050;2023-12-20T09:33:50;98503.09;;;12.32;53.92
13124;BME280;6627;50.920;12.050;2023-12-20T09:36:29;98503.09;;;12.32;53.93
13124;BME280;6627;50.920;12.050;2023-12-20T09:39:10;98549.78;;;12.69;53.78
13124;BME280;6627;50.920;12.050;2023-12-20T09:41:42;98529.78;;;12.39;54.35
13124;BME280;6627;50.920;12.050;2023-12-20T09:44:18;98560.47;;;12.74;54.33
13124;BME280;6627;50.920;12.050;2023-12-20T09:46:54;98482.81;;;12.38;53.79
13124;BME280;6627;50.920;12.050;2023-12-20T09:49:44;98499.09;;;12.38;53.96
13124;BME280;6627;50.920;12.050;2023-12-20T09:52:33;98478.34;;;12.69;52.91
13124;BME280;6627;50.920;12.050;2023-12-20T09:55:15;98491.94;;;12.60;53.43
13124;BME280;6627;50.920;12.050;2023-12-20T09:57:56;98451.34;;;12.20;53.74
13124;BME280;6627;50.920;12.050;2023-12-20T10:00:43;98528.38;;;12.94;53.17
13124;BME280;6627;50.920;12.050;2023-12-20T10:03:23;98570.09;;;13.15;52.51
13124;BME280;6627;50.920;12.050;2023-12-20T10:05:56;98438.50;;;12.99;51.55
13124;BME280;6627;50.920;12.050;2023-12-20T10:08:24;98382.34;;;12.38;51.98
13124;BME280;6627;50.920;12.050;2023-12-20T10:11:12;98400.03;;;12.71;51.49
13124;BME280;6627;50.920;12.050;2023-12-20T10:13:48;98387.91;;;12.51;51.49
13124;BME280;6627;50.920;12.050;2023-12-20T10:16:25;98398.13;;;12.62;51.53
13124;BME280;6627;50.920;12.050;2023-12-20T10:18:56;98426.81;;;12.98;51.26
13124;BME280;6627;50.920;12.050;2023-12-20T10:21:25;98372.13;;;12.35;51.79
13124;BME280;6627;50.920;12.050;2023-12-20T10:24:01;98448.38;;;13.12;51.26
13124;BME280;6627;50.920;12.050;2023-12-20T10:26:28;98395.03;;;12.81;51.18
13124;BME280;6627;50.920;12.050;2023-12-20T10:28:59;98405.88;;;12.99;50.92
13124;BME280;6627;50.920;12.050;2023-12-20T10:31:35;98466.69;;;13.41;51.04
13124;BME280;6627;50.920;12.050;2023-12-20T10:34:24;98464.88;;;13.54;50.60
13124;BME280;6627;50.920;12.050;2023-12-20T10:36:52;98453.53;;;13.52;50.60
13124;BME280;6627;50.920;12.050;2023-12-20T10:39:21;98325.03;;;12.78;50.71
13124;BME280;6627;50.920;12.050;2023-12-20T10:41:50;98331.50;;;12.48;51.43
13124;BME280;6627;50.920;12.050;2023-12-20T10:44:19;98404.69;;;13.26;50.75
13124;BME280;6627;50.920;12.050;2023-12-20T10:46:46;98355.41;;;12.80;51.00
13124;BME280;6627;50.920;12.050;2023-12-20T10:49:18;98329.41;;;12.71;51.08
13124;BME280;6627;50.920;12.050;2023-12-20T10:51:54;98336.25;;;12.68;51.13
13124;BME280;6627;50.920;12.050;2023-12-20T10:54:23;98370.00;;;13.05;50.91
13124;BME280;6627;50.920;12.050;2023-12-20T10:56:52;98412.16;;;13.37;50.60
13124;BME280;6627;50.920;12.050;2023-12-20T10:59:37;98425.81;;;14.09;49.26
13124;BME280;6627;50.920;12.050;2023-12-20T11:02:25;98329.47;;;13.30;49.98
13124;BME280;6627;50.920;12.050;2023-12-20T11:05:17;98293.59;;;12.69;50.32
13124;BME280;6627;50.920;12.050;2023-12-20T11:08:16;98337.72;;;13.04;50.26
13124;BME280;6627;50.920;12.050;2023-12-20T11:10:51;98329.81;;;13.28;49.84
13124;BME280;6627;50.920;12.050;2023-12-20T11:13:30;98269.91;;;12.78;50.14
13124;BME280;6627;50.920;12.050;2023-12-20T11:16:00;98326.22;;;13.07;50.14
13124;BME280;6627;50.920;12.050;2023-12-20T11:18:30;98337.75;;;13.63;49.20
13124;BME280;6627;50.920;12.050;2023-12-20T11:21:01;98344.38;;;13.53;49.13
13124;BME280;6627;50.920;12.050;2023-12-20T11:23:50;98328.22;;;13.78;48.43
13124;BME280;6627;50.920;12.050;2023-12-20T11:26:26;98281.47;;;13.55;48.11
13124;BME280;6627;50.920;12.050;2023-12-20T11:28:54;98387.41;;;14.44;47.79
13124;BME280;6627;50.920;12.050;2023-12-20T11:31:21;98331.53;;;14.04;47.79
13124;BME280;6627;50.920;12.050;2023-12-20T11:33:49;98296.47;;;13.82;47.99
13124;BME280;6627;50.920;12.050;2023-12-20T11:36:19;98329.72;;;14.42;46.95
13124;BME280;6627;50.920;12.050;2023-12-20T11:38:55;98269.41;;;13.98;47.40
13124;BME280;6627;50.920;12.050;2023-12-20T11:41:23;98227.03;;;13.76;47.61
13124;BME280;6627;50.920;12.050;2023-12-20T11:43:53;98286.06;;;14.17;47.34
13124;BME280;6627;50.920;12.050;2023-12-20T11:46:22;98282.44;;;14.25;46.90
13124;BME280;6627;50.920;12.050;2023-12-20T11:49:00;98206.94;;;13.68;47.99
13124;BME280;6627;50.920;12.050;2023-12-20T11:51:48;98138.91;;;13.68;46.63
13124;BME280;6627;50.920;12.050;2023-12-20T11:54:36;98280.06;;;14.69;45.99
13124;BME280;6627;50.920;12.050;2023-12-20T11:57:17;98211.72;;;14.74;44.92
13124;BME280;6627;50.920;12.050;2023-12-20T11:59:55;98217.03;;;14.95;44.74
13124;BME280;6627;50.920;12.050;2023-12-20T12:02:33;98195.34;;;14.99;44.78
13124;BME280;6627;50.920;12.050;2023-12-20T12:05:07;98176.47;;;15.06;44.01
13124;BME280;6627;50.920;12.050;2023-12-20T12:07:54;98145.16;;;14.63;45.23
13124;BME280;6627;50.920;12.050;2023-12-20T12:10:23;98039.47;;;14.20;45.06
13124;BME280;6627;50.920;12.050;2023-12-20T12:12:55;98060.25;;;14.24;45.12
13124;BME280;6627;50.920;12.050;2023-12-20T12:15:26;98142.63;;;14.82;44.98
13124;BME280;6627;50.920;12.050;2023-12-20T12:18:03;97995.25;;;13.61;45.61
13124;BME280;6627;50.920;12.050;2023-12-20T12:21:00;98050.97;;;14.01;45.51
13124;BME280;6627;50.920;12.050;2023-12-20T12:23:44;97989.25;;;13.56;45.71
13124;BME280;6627;50.920;12.050;2023-12-20T12:26:33;98116.91;;;14.55;45.05
13124;BME280;6627;50.920;12.050;2023-12-20T12:29:20;98096.25;;;14.30;45.22
13124;BME280;6627;50.920;12.050;2023-12-20T12:32:06;98009.53;;;13.46;46.29
13124;BME280;6627;50.920;12.050;2023-12-20T12:34:35;97955.00;;;12.97;46.67
13124;BME280;6627;50.920;12.050;2023-12-20T12:37:10;98008.25;;;13.44;46.18
13124;BME280;6627;50.920;12.050;2023-12-20T12:39:53;98063.84;;;13.67;46.47
13124;BME280;6627;50.920;12.050;2023-12-20T12:42:22;97947.38;;;12.91;46.68
13124;BME280;6627;50.920;12.050;2023-12-20T12:45:02;98033.41;;;13.28;47.04
13124;BME280;6627;50.920;12.050;2023-12-20T12:47:29;97917.91;;;12.47;47.80
13124;BME280;6627;50.920;12.050;2023-12-20T12:49:57;98126.19;;;13.60;47.58
13124;BME280;6627;50.920;12.050;2023-12-20T12:52:25;98053.53;;;13.27;47.72
13124;BME280;6627;50.920;12.050;2023-12-20T12:55:12;98023.53;;;13.36;47.37
13124;BME280;6627;50.920;12.050;2023-12-20T12:57:41;97972.50;;;12.87;47.58
13124;BME280;6627;50.920;12.050;2023-12-20T13:00:10;97956.41;;;12.82;47.46
13124;BME280;6627;50.920;12.050;2023-12-20T13:02:38;97975.66;;;12.77;48.05
13124;BME280;6627;50.920;12.050;2023-12-20T13:05:15;98034.47;;;13.15;47.87
13124;BME280;6627;50.920;12.050;2023-12-20T13:08:04;97977.53;;;12.98;47.76
13124;BME280;6627;50.920;12.050;2023-12-20T13:10:51;98057.78;;;13.16;48.42
13124;BME280;6627;50.920;12.050;2023-12-20T13:13:20;98014.72;;;13.06;47.81
13124;BME280;6627;50.920;12.050;2023-12-20T13:15:47;98070.47;;;13.45;48.08
13124;BME280;6627;50.920;12.050;2023-12-20T13:18:18;98017.34;;;13.48;47.06
13124;BME280;6627;50.920;12.050;2023-12-20T13:20:46;98026.63;;;13.59;46.77
13124;BME280;6627;50.920;12.050;2023-12-20T13:23:32;98033.59;;;13.69;46.53
13124;BME280;6627;50.920;12.050;2023-12-20T13:26:12;98013.44;;;13.36;47.19
13124;BME280;6627;50.920;12.050;2023-12-20T13:28:42;97978.25;;;13.07;47.17
13124;BME280;6627;50.920;12.050;2023-12-20T13:31:28;97983.91;;;13.14;47.15
13124;BME280;6627;50.920;12.050;2023-12-20T13:33:56;98048.53;;;13.62;46.84
13124;BME280;6627;50.920;12.050;2023-12-20T13:36:39;97940.69;;;12.88;47.45